Time;durP1;ratioP1;P1;durP2;ratioP2;P2;SDS_P1;SDS_P2;PMS_P1;PMS_P2;Temp;Humidity;BMP_temperature;BMP_pressure;BME280_temperature;BME280_humidity;BME280_pressure;Samples;Min_cycle;Max_cycle;Signal;HPM_P1;HPM_P2
2022/11/27 00:00:25;;;;;;;36.40;15.60;;;;;;;3.96;100.00;99923.29;214119;1310;22819;-74
2022/11/27 00:05:27;;;;;;;30.30;14.10;;;;;;;3.94;100.00;99919.10;214250;1310;25496;-75
2022/11/27 00:10:29;;;;;;;28.60;13.30;;;;;;;3.95;100.00;99919.77;214247;1303;24308;-75
2022/11/27 00:15:31;;;;;;;34.60;14.80;;;;;;;3.95;100.00;99919.95;214172;1310;22578;-75
2022/11/27 00:20:33;;;;;;;27.40;13.10;;;;;;;3.97;100.00;99921.29;214069;1306;22494;-75
2022/11/27 00:25:35;;;;;;;35.20;14.70;;;;;;;3.96;100.00;99922.44;214115;1310;23232;-76
2022/11/27 00:30:38;;;;;;;37.80;18.40;;;;;;;3.99;100.00;99926.70;214105;1310;22546;-75
2022/11/27 00:35:40;;;;;;;35.50;15.40;;;;;;;4.02;100.00;99930.05;214079;1310;22433;-75
2022/11/27 00:40:42;;;;;;;35.80;15.40;;;;;;;4.00;100.00;99925.91;214126;1310;23057;-75
2022/11/27 00:45:48;;;;;;;43.30;18.70;;;;;;;4.06;100.00;99931.38;214381;1310;24324;-75
2022/11/27 00:50:50;;;;;;;39.30;18.80;;;;;;;4.06;100.00;99930.72;214144;1309;22893;-75
2022/11/27 00:55:53;;;;;;;47.90;21.30;;;;;;;4.08;100.00;99931.43;214299;1309;22562;-75
2022/11/27 01:00:58;;;;;;;39.60;18.70;;;;;;;4.09;100.00;99930.90;214271;1310;22483;-75
2022/11/27 01:06:05;;;;;;;48.30;21.00;;;;;;;4.08;100.00;99928.13;214164;1310;26496;-75
2022/11/27 01:11:13;;;;;;;50.00;21.80;;;;;;;4.08;100.00;99931.14;214184;1310;25205;-75
2022/11/27 01:16:23;;;;;;;51.20;21.60;;;;;;;4.04;100.00;99930.13;214503;1309;22577;-76
2022/11/27 01:21:28;;;;;;;40.70;18.50;;;;;;;4.03;100.00;99929.40;214296;1310;23175;-74
2022/11/27 01:26:30;;;;;;;43.40;20.20;;;;;;;4.02;100.00;99929.45;214107;1310;25241;-75
2022/11/27 01:31:33;;;;;;;46.90;20.30;;;;;;;4.02;100.00;99924.74;214200;1310;25546;-75
2022/11/27 01:36:35;;;;;;;45.40;18.80;;;;;;;4.05;100.00;99925.91;214078;1310;22485;-74
2022/11/27 01:41:40;;;;;;;46.90;16.80;;;;;;;4.06;100.00;99927.16;214197;1310;22521;-75
2022/11/27 01:46:45;;;;;;;33.70;15.00;;;;;;;4.07;100.00;99927.07;214146;1310;22741;-75
2022/11/27 01:51:58;;;;;;;38.30;15.30;;;;;;;3.99;99.96;99929.76;213958;1305;22729;-74
2022/11/27 01:57:06;;;;;;;39.50;17.50;;;;;;;3.89;99.80;99924.80;214259;1302;22482;-75
2022/11/27 02:02:08;;;;;;;38.20;17.00;;;;;;;3.84;99.94;99921.19;214358;1309;24223;-75
2022/11/27 02:07:10;;;;;;;45.70;18.10;;;;;;;3.81;100.00;99919.28;213953;1310;22478;-74
2022/11/27 02:12:26;;;;;;;39.10;17.30;;;;;;;3.86;100.00;99919.83;214104;1310;22616;-75
2022/11/27 02:18:09;;;;;;;38.90;17.90;;;;;;;3.94;100.00;99920.98;214213;1310;22484;-75
2022/11/27 02:23:48;;;;;;;42.20;19.30;;;;;;;4.00;100.00;99921.71;214291;1309;25324;-75
2022/11/27 02:29:18;;;;;;;49.60;18.90;;;;;;;4.02;100.00;99923.53;214169;1310;24264;-75
2022/11/27 02:34:26;;;;;;;;;;;;;;;4.05;100.00;99925.75;214281;1310;22500;-75
2022/11/27 02:39:37;;;;;;;38.30;17.80;;;;;;;4.04;100.00;99927.69;214318;1310;25373;-75
2022/11/27 02:44:45;;;;;;;36.30;14.80;;;;;;;4.04;100.00;99927.89;214243;1309;24275;-74
2022/11/27 02:49:50;;;;;;;35.00;13.50;;;;;;;4.06;100.00;99926.88;213962;1310;24083;-75
2022/11/27 02:54:56;;;;;;;35.20;13.60;;;;;;;4.06;100.00;99928.48;214522;1310;22494;-76
2022/11/27 03:00:00;;;;;;;35.80;13.70;;;;;;;4.08;100.00;99934.00;214262;1300;22485;-75
2022/11/27 03:05:04;;;;;;;36.40;15.90;;;;;;;4.08;100.00;99938.09;214022;1310;22734;-74
2022/11/27 03:10:22;;;;;;;48.40;18.40;;;;;;;4.09;100.00;99938.92;213902;1309;24307;-74
2022/11/27 03:15:33;;;;;;;42.60;17.60;;;;;;;4.09;100.00;99944.02;214297;1310;25377;-74
2022/11/27 03:20:40;;;;;;;35.20;15.90;;;;;;;4.09;100.00;99948.15;214268;1310;22583;-75
2022/11/27 03:25:41;;;;;;;33.50;13.30;;;;;;;4.08;100.00;99942.00;214240;1310;22464;-75
2022/11/27 03:30:43;;;;;;;32.10;13.10;;;;;;;4.05;100.00;99941.05;214023;1309;22688;-75
2022/11/27 03:35:45;;;;;;;29.00;12.90;;;;;;;4.01;99.97;99937.13;214250;1309;22486;-75
2022/11/27 03:41:04;;;;;;;34.60;13.70;;;;;;;3.99;100.00;99930.24;214269;1310;23245;-75
2022/11/27 03:46:22;;;;;;;31.30;13.20;;;;;;;3.96;100.00;99931.33;214245;1310;22547;-75
2022/11/27 03:51:38;;;;;;;42.40;16.00;;;;;;;3.93;99.99;99926.37;214322;1310;22493;-75
2022/11/27 03:56:55;;;;;;;42.80;17.70;;;;;;;3.92;99.99;99926.87;214325;1310;22490;-75
2022/11/27 04:01:57;;;;;;;47.60;20.80;;;;;;;3.94;100.00;99928.33;214183;1310;25442;-75
2022/11/27 04:06:59;;;;;;;44.00;19.50;;;;;;;3.96;100.00;99924.80;214233;1310;22742;-75
2022/11/27 04:12:01;;;;;;;42.90;19.20;;;;;;;3.94;100.00;99928.05;214029;1309;23205;-75
2022/11/27 04:17:03;;;;;;;45.60;22.20;;;;;;;3.92;100.00;99929.39;214028;1310;22471;-75
2022/11/27 04:22:04;;;;;;;53.00;22.80;;;;;;;3.89;100.00;99925.58;214113;1287;22485;-75
2022/11/27 04:27:06;;;;;;;53.10;21.20;;;;;;;3.86;100.00;99930.34;214018;1310;25461;-76
2022/11/27 04:32:09;;;;;;;52.50;22.70;;;;;;;3.83;100.00;99928.05;214262;1310;22481;-76
2022/11/27 04:37:11;;;;;;;45.30;20.40;;;;;;;3.82;100.00;99934.16;214295;1310;22486;-76
2022/11/27 04:42:12;;;;;;;56.10;20.80;;;;;;;3.81;100.00;99933.07;214076;1310;25357;-76
2022/11/27 04:47:14;;;;;;;41.40;18.00;;;;;;;3.79;100.00;99938.75;214322;1310;22481;-75
2022/11/27 04:52:16;;;;;;;42.70;16.30;;;;;;;3.76;100.00;99937.18;214153;1310;25276;-76
2022/11/27 04:57:18;;;;;;;30.80;13.40;;;;;;;3.71;100.00;99931.50;214143;1310;25278;-75
2022/11/27 05:02:20;;;;;;;42.60;17.60;;;;;;;3.67;100.00;99922.20;214046;1309;25266;-75
2022/11/27 05:07:22;;;;;;;33.90;14.60;;;;;;;3.64;100.00;99916.35;214132;1310;22816;-76
2022/11/27 05:12:24;;;;;;;40.30;16.50;;;;;;;3.61;100.00;99912.08;214233;1309;24570;-75
2022/11/27 05:17:26;;;;;;;44.90;16.70;;;;;;;3.58;100.00;99915.98;213990;1310;25268;-75
2022/11/27 05:22:28;;;;;;;36.70;14.40;;;;;;;3.55;100.00;99913.27;214225;1310;25380;-76
2022/11/27 05:27:30;;;;;;;38.40;15.80;;;;;;;3.55;100.00;99913.86;214114;1310;22760;-75
2022/11/27 05:32:32;;;;;;;48.50;18.40;;;;;;;3.56;100.00;99915.02;214352;1309;24459;-74
2022/11/27 05:37:33;;;;;;;51.90;20.10;;;;;;;3.59;100.00;99910.22;214054;1310;24507;-75
2022/11/27 05:42:35;;;;;;;41.20;19.00;;;;;;;3.58;100.00;99911.62;214096;1310;22604;-75
2022/11/27 05:47:37;;;;;;;43.30;18.10;;;;;;;3.55;100.00;99913.39;214103;1310;22519;-75
2022/11/27 05:52:39;;;;;;;43.50;19.80;;;;;;;3.55;100.00;99910.37;213791;1309;25339;-76
2022/11/27 05:57:41;;;;;;;37.80;18.10;;;;;;;3.58;100.00;99906.56;214252;1310;23558;-74
2022/11/27 06:02:43;;;;;;;47.40;21.70;;;;;;;3.60;100.00;99908.55;214137;1310;25287;-75
2022/11/27 06:07:45;;;;;;;44.40;19.90;;;;;;;3.63;100.00;99909.80;214198;1310;22460;-74
2022/11/27 06:12:47;;;;;;;39.50;19.90;;;;;;;3.64;100.00;99909.23;214141;1310;22720;-75
2022/11/27 06:17:49;;;;;;;42.50;20.20;;;;;;;3.64;100.00;99899.91;214251;1310;24314;-77
2022/11/27 06:22:51;;;;;;;45.00;20.10;;;;;;;3.58;100.00;99896.77;214074;1309;23078;-74
2022/11/27 06:27:52;;;;;;;44.20;22.30;;;;;;;3.53;100.00;99894.98;214101;1310;22489;-74
2022/11/27 06:32:54;;;;;;;40.10;19.30;;;;;;;3.50;100.00;99902.73;214308;1295;22478;-74
2022/11/27 06:37:56;;;;;;;48.70;23.20;;;;;;;3.47;100.00;99911.73;214359;1310;22659;-74
2022/11/27 06:42:58;;;;;;;48.20;23.50;;;;;;;3.47;100.00;99918.70;214027;1310;24420;-75
2022/11/27 06:48:00;;;;;;;54.80;26.70;;;;;;;3.51;100.00;99925.52;214309;1310;25265;-75
2022/11/27 06:53:02;;;;;;;46.70;25.20;;;;;;;3.55;100.00;99929.58;214326;1309;22485;-75
2022/11/27 06:58:04;;;;;;;43.70;22.90;;;;;;;3.57;100.00;99930.30;214336;1310;25377;-75
2022/11/27 07:03:05;;;;;;;47.60;23.10;;;;;;;3.59;100.00;99934.08;214050;1310;25220;-75
2022/11/27 07:08:07;;;;;;;37.50;19.30;;;;;;;3.65;100.00;99933.91;214261;1310;25212;-75
2022/11/27 07:13:09;;;;;;;43.60;23.00;;;;;;;3.67;100.00;99934.02;214101;1304;22471;-75
2022/11/27 07:18:11;;;;;;;39.70;20.20;;;;;;;3.72;100.00;99935.18;214100;1310;22598;-75
2022/11/27 07:23:13;;;;;;;46.10;23.80;;;;;;;3.73;100.00;99933.33;214108;1310;22474;-75
2022/11/27 07:28:15;;;;;;;49.90;25.00;;;;;;;3.79;100.00;99939.11;214326;1310;24306;-75
2022/11/27 07:33:20;;;;;;;56.90;27.10;;;;;;;3.84;100.00;99933.86;213847;1309;24223;-75
2022/11/27 07:38:22;;;;;;;46.90;24.90;;;;;;;3.87;100.00;99931.27;214073;1310;22480;-74
2022/11/27 07:43:23;;;;;;;48.70;25.40;;;;;;;3.90;100.00;99929.08;214238;1310;22833;-76
2022/11/27 07:48:25;;;;;;;58.80;27.20;;;;;;;3.97;100.00;99939.68;214036;1310;24073;-75
2022/11/27 07:53:27;;;;;;;45.20;21.70;;;;;;;4.09;100.00;99937.02;214072;1310;22588;-75
2022/11/27 07:58:29;;;;;;;54.30;25.50;;;;;;;4.14;100.00;99933.30;214260;1310;23829;-75
2022/11/27 08:03:31;;;;;;;46.00;22.40;;;;;;;4.21;100.00;99937.65;214155;1309;22461;-75
2022/11/27 08:08:33;;;;;;;42.70;19.70;;;;;;;4.30;100.00;99938.18;214280;1310;22466;-77
2022/11/27 08:13:35;;;;;;;42.80;18.20;;;;;;;4.32;100.00;99940.94;214052;1310;23819;-75
2022/11/27 08:18:37;;;;;;;44.40;19.10;;;;;;;4.26;100.00;99947.92;214031;1309;25141;-76
2022/11/27 08:23:39;;;;;;;42.80;19.90;;;;;;;4.18;100.00;99950.00;214319;1309;25222;-75
2022/11/27 08:28:42;;;;;;;40.50;17.40;;;;;;;4.12;100.00;99953.44;214048;1299;22485;-75
2022/11/27 08:33:43;;;;;;;33.80;16.90;;;;;;;4.05;100.00;99958.43;214242;1309;24284;-75
2022/11/27 08:38:46;;;;;;;28.80;14.30;;;;;;;3.98;100.00;99956.69;214314;1310;26431;-75
2022/11/27 08:43:48;;;;;;;31.50;15.40;;;;;;;3.94;100.00;99955.69;214215;1310;22578;-75
2022/11/27 08:48:49;;;;;;;31.70;17.20;;;;;;;3.94;100.00;99948.52;214101;1310;22480;-75
2022/11/27 08:53:52;;;;;;;32.00;15.80;;;;;;;4.05;100.00;99949.33;214117;1310;22586;-75
2022/11/27 08:58:54;;;;;;;35.90;18.90;;;;;;;4.13;100.00;99950.33;214195;1310;22611;-74
2022/11/27 09:03:57;;;;;;;44.40;19.50;;;;;;;4.22;100.00;99950.52;214294;1310;22676;-74
2022/11/27 09:09:00;;;;;;;33.00;15.40;;;;;;;4.31;100.00;99953.43;214284;1310;25466;-75
2022/11/27 09:14:04;;;;;;;41.30;18.90;;;;;;;4.31;100.00;99955.52;214205;1310;23071;-75
2022/11/27 09:19:06;;;;;;;37.00;18.70;;;;;;;4.28;100.00;99954.94;214181;1310;24518;-75
2022/11/27 09:24:08;;;;;;;42.60;20.70;;;;;;;4.28;100.00;99943.95;214120;1307;22497;-75
2022/11/27 09:29:10;;;;;;;44.30;20.20;;;;;;;4.34;100.00;99948.03;214140;1310;22476;-75
2022/11/27 09:34:13;;;;;;;27.60;15.50;;;;;;;4.40;100.00;99944.32;214166;1310;22479;-75
2022/11/27 09:39:15;;;;;;;43.60;20.90;;;;;;;4.45;100.00;99941.54;214154;1310;22486;-75
2022/11/27 09:44:39;;;;;;;43.60;21.00;;;;;;;4.55;100.00;99938.14;214177;1310;22481;-75
2022/11/27 09:49:49;;;;;;;40.70;19.40;;;;;;;4.65;100.00;99936.77;214080;1310;22683;-74
2022/11/27 09:54:59;;;;;;;45.70;21.70;;;;;;;4.75;100.00;99932.87;214345;1309;25211;-75
2022/11/27 10:00:15;;;;;;;40.50;20.80;;;;;;;4.87;100.00;99917.87;214316;1310;24352;-75
2022/11/27 10:05:25;;;;;;;46.00;21.90;;;;;;;5.01;100.00;99906.42;214257;1310;22438;-75
2022/11/27 10:11:02;;;;;;;41.50;20.80;;;;;;;5.15;100.00;99908.77;214227;1310;22502;-75
2022/11/27 10:16:33;;;;;;;39.80;18.60;;;;;;;5.24;100.00;99903.84;214069;1310;23753;-75
2022/11/27 10:21:53;;;;;;;;;;;;;;;5.27;100.00;99899.30;214311;1310;25204;-75
2022/11/27 10:26:58;;;;;;;41.50;20.60;;;;;;;5.33;100.00;99894.73;214287;1309;22475;-75
2022/11/27 10:32:29;;;;;;;36.20;19.70;;;;;;;5.40;100.00;99891.77;214355;1310;22533;-75
2022/11/27 10:38:09;;;;;;;42.70;20.00;;;;;;;5.45;100.00;99885.48;214053;1310;136105;-75
2022/11/27 10:43:24;;;;;;;36.60;17.70;;;;;;;5.54;100.00;99878.40;214053;1305;22951;-75
2022/11/27 10:48:28;;;;;;;37.00;17.10;;;;;;;5.58;100.00;99875.27;214316;1310;27661;-74
2022/11/27 10:53:36;;;;;;;31.90;16.90;;;;;;;5.60;99.99;99874.95;214289;1310;22467;-75
2022/11/27 10:59:03;;;;;;;34.50;16.90;;;;;;;5.66;100.00;99870.31;214152;1310;22479;-75
2022/11/27 11:04:06;;;;;;;38.70;17.30;;;;;;;5.72;99.93;99872.14;214362;1309;25346;-74
2022/11/27 11:09:33;;;;;;;38.00;18.50;;;;;;;5.75;99.70;99876.70;214036;1310;24319;-74
2022/11/27 11:14:35;;;;;;;30.80;16.60;;;;;;;5.80;99.93;99868.29;214285;1310;23742;-75
2022/11/27 11:19:37;;;;;;;34.80;16.80;;;;;;;5.82;99.48;99859.20;214089;1310;24735;-75
2022/11/27 11:24:45;;;;;;;32.10;16.60;;;;;;;5.90;99.60;99853.52;214093;1310;22482;-75
2022/11/27 11:30:02;;;;;;;31.20;15.70;;;;;;;6.07;99.82;99853.99;214219;1310;22543;-74
2022/11/27 11:35:22;;;;;;;27.20;13.50;;;;;;;6.13;99.04;99845.66;214133;1310;22599;-74
2022/11/27 11:40:29;;;;;;;32.20;16.00;;;;;;;6.17;99.00;99837.45;214331;1310;22981;-75
2022/11/27 11:45:33;;;;;;;32.30;16.80;;;;;;;6.29;98.85;99837.23;214168;1310;22487;-75
2022/11/27 11:50:51;;;;;;;27.70;14.40;;;;;;;6.31;98.05;99833.23;214161;1310;24160;-75
2022/11/27 11:56:08;;;;;;;28.50;15.10;;;;;;;6.20;97.88;99826.63;214307;1310;25377;-74
2022/11/27 12:01:25;;;;;;;25.80;12.50;;;;;;;6.12;97.92;99822.61;214058;1295;22467;-75
2022/11/27 12:06:41;;;;;;;30.70;16.40;;;;;;;5.94;97.26;99813.73;214305;1310;22602;-77
2022/11/27 12:11:47;;;;;;;27.50;13.50;;;;;;;5.75;96.99;99808.19;214087;1310;22593;-75
2022/11/27 12:17:02;;;;;;;25.70;14.00;;;;;;;5.66;97.21;99802.95;214180;1310;25223;-75
2022/11/27 12:22:29;;;;;;;29.80;15.80;;;;;;;5.76;97.59;99806.73;214232;1312;22660;-74
2022/11/27 12:28:18;;;;;;;25.30;13.10;;;;;;;5.89;97.72;99805.10;214403;1310;24275;-75
2022/11/27 12:33:59;;;;;;;25.00;13.50;;;;;;;6.02;97.63;99800.57;214081;1310;22474;-75
2022/11/27 12:39:30;;;;;;;23.40;12.80;;;;;;;6.08;97.35;99800.70;214205;1310;25388;-75
2022/11/27 12:44:59;;;;;;;25.00;12.50;;;;;;;6.09;96.93;99805.25;214118;1310;22546;-75
2022/11/27 12:50:27;;;;;;;20.80;11.90;;;;;;;6.12;96.62;99805.48;214042;1310;23854;-75
2022/11/27 12:55:32;;;;;;;20.10;10.40;;;;;;;6.16;96.54;99810.61;214188;1310;22558;-75
2022/11/27 13:00:39;;;;;;;21.60;11.50;;;;;;;6.16;96.30;99806.56;214334;1310;24302;-75
2022/11/27 13:06:05;;;;;;;22.80;12.20;;;;;;;6.07;95.95;99799.72;214136;1310;23288;-75
2022/11/27 13:11:12;;;;;;;20.60;11.40;;;;;;;5.93;95.47;99803.87;214228;1310;22677;-75
2022/11/27 13:16:26;;;;;;;22.10;11.30;;;;;;;5.85;95.59;99800.67;214076;1310;22505;-75
2022/11/27 13:21:32;;;;;;;21.40;11.40;;;;;;;5.76;95.67;99798.64;214233;1310;25269;-75
2022/11/27 13:26:59;;;;;;;20.70;11.60;;;;;;;5.64;95.54;99798.90;214229;1310;23188;-74
2022/11/27 13:32:03;;;;;;;25.90;11.90;;;;;;;5.44;94.84;99791.05;214329;1310;24362;-74
2022/11/27 13:37:08;;;;;;;20.50;10.80;;;;;;;5.23;95.09;99788.95;214136;1310;22492;-76
2022/11/27 13:42:09;;;;;;;23.90;10.90;;;;;;;5.06;95.53;99788.73;214246;1309;24275;-75
2022/11/27 13:47:15;;;;;;;21.00;11.30;;;;;;;4.92;95.53;99786.67;214354;1310;22697;-74
2022/11/27 13:52:20;;;;;;;19.40;10.70;;;;;;;4.81;95.61;99784.42;214039;1310;25371;-75
2022/11/27 13:57:22;;;;;;;24.10;11.30;;;;;;;4.72;95.62;99783.93;214025;1310;24604;-74
2022/11/27 14:02:38;;;;;;;19.80;9.90;;;;;;;4.65;95.33;99787.57;214197;1310;24475;-75
2022/11/27 14:07:46;;;;;;;16.80;9.30;;;;;;;4.59;95.57;99786.57;214075;1310;22545;-74
2022/11/27 14:12:57;;;;;;;20.20;10.70;;;;;;;4.55;95.75;99789.73;214304;1310;22472;-74
2022/11/27 14:18:15;;;;;;;19.90;9.90;;;;;;;4.52;95.53;99786.11;214238;1310;24455;-74
2022/11/27 14:23:47;;;;;;;18.50;9.10;;;;;;;4.52;95.85;99792.10;213998;1310;22493;-76
2022/11/27 14:28:59;;;;;;;19.00;9.30;;;;;;;4.52;95.83;99790.83;214279;1302;22599;-75
2022/11/27 14:34:01;;;;;;;18.50;8.80;;;;;;;4.52;95.90;99788.35;213942;1310;22489;-75
2022/11/27 14:39:34;;;;;;;19.40;9.40;;;;;;;4.50;95.86;99790.13;214241;1310;24076;-75
2022/11/27 14:44:36;;;;;;;21.50;9.90;;;;;;;4.45;95.74;99792.80;214069;1310;22485;-75
2022/11/27 14:49:40;;;;;;;19.80;9.90;;;;;;;4.41;95.85;99786.88;214101;1310;22469;-75
2022/11/27 14:54:43;;;;;;;18.70;9.40;;;;;;;4.38;95.93;99786.30;214201;1310;25306;-75
2022/11/27 14:59:45;;;;;;;18.90;9.80;;;;;;;4.36;96.06;99778.30;214228;1310;24713;-76
2022/11/27 15:04:47;;;;;;;31.10;15.30;;;;;;;4.33;96.22;99769.71;214249;1309;22471;-75
2022/11/27 15:09:53;;;;;;;31.80;15.90;;;;;;;4.29;96.52;99766.21;214275;1310;22470;-74
2022/11/27 15:15:03;;;;;;;38.20;19.30;;;;;;;4.26;96.64;99761.23;214167;1307;22606;-75
2022/11/27 15:20:14;;;;;;;38.60;20.90;;;;;;;4.21;96.51;99754.39;214047;1309;22530;-75
2022/11/27 15:25:40;;;;;;;41.50;22.70;;;;;;;4.18;96.89;99746.42;213989;1309;22482;-75
2022/11/27 15:30:45;;;;;;;45.40;24.10;;;;;;;4.13;96.89;99741.15;214106;1310;22481;-75
2022/11/27 15:35:47;;;;;;;34.70;18.90;;;;;;;4.08;96.86;99737.19;214332;1310;23788;-76
2022/11/27 15:40:59;;;;;;;50.50;27.60;;;;;;;4.04;97.04;99735.38;214097;1310;23763;-75
2022/11/27 15:46:05;;;;;;;60.50;30.10;;;;;;;4.03;97.39;99738.52;214128;1310;22581;-75
2022/11/27 15:51:07;;;;;;;75.80;38.80;;;;;;;3.98;97.21;99737.85;214412;1310;24457;-75
2022/11/27 15:56:08;;;;;;;73.70;36.90;;;;;;;3.94;97.31;99730.63;214276;1310;24221;-74
2022/11/27 16:01:10;;;;;;;68.60;36.30;;;;;;;3.89;97.62;99729.01;214293;1310;22523;-75
2022/11/27 16:06:12;;;;;;;75.30;35.90;;;;;;;3.88;97.45;99719.86;214255;1309;22495;-75
2022/11/27 16:11:18;;;;;;;68.30;34.60;;;;;;;3.81;97.49;99714.89;214300;1310;22483;-75
2022/11/27 16:16:20;;;;;;;67.20;34.60;;;;;;;3.74;97.52;99714.20;214232;1310;25222;-74
2022/11/27 16:21:22;;;;;;;74.40;38.50;;;;;;;3.67;97.21;99707.92;214025;1307;24324;-75
2022/11/27 16:26:31;;;;;;;61.70;32.40;;;;;;;3.60;97.44;99699.02;214097;1310;23271;-75
2022/11/27 16:31:33;;;;;;;72.00;35.50;;;;;;;3.54;97.42;99702.98;214038;1310;22473;-74
2022/11/27 16:36:41;;;;;;;56.20;28.20;;;;;;;3.52;97.63;99701.21;214017;1310;25353;-75
2022/11/27 16:41:43;;;;;;;61.60;31.40;;;;;;;3.51;97.77;99690.48;214275;1310;25275;-75
2022/11/27 16:46:47;;;;;;;57.80;30.60;;;;;;;3.49;97.58;99688.04;214086;1310;22591;-74
2022/11/27 16:51:49;;;;;;;80.30;35.90;;;;;;;3.45;97.52;99684.13;214061;1310;22731;-75
2022/11/27 16:56:52;;;;;;;62.60;31.70;;;;;;;3.35;97.49;99677.45;214290;1309;25218;-74
2022/11/27 17:01:54;;;;;;;70.40;31.60;;;;;;;3.25;97.31;99675.55;214292;1310;25332;-75
2022/11/27 17:06:56;;;;;;;63.60;31.20;;;;;;;3.15;97.60;99681.14;213925;1310;22482;-76
2022/11/27 17:11:58;;;;;;;65.40;31.40;;;;;;;3.08;97.67;99677.83;214060;1310;22488;-74
2022/11/27 17:17:01;;;;;;;69.50;32.70;;;;;;;3.02;97.79;99675.14;214223;1308;22489;-73
2022/11/27 17:22:03;;;;;;;68.10;30.90;;;;;;;2.95;97.93;99668.15;214225;1310;22536;-75
2022/11/27 17:27:08;;;;;;;58.60;29.80;;;;;;;2.89;98.01;99668.89;213958;1310;25319;-75
2022/11/27 17:32:11;;;;;;;71.40;35.30;;;;;;;2.85;98.08;99666.80;214081;1310;22982;-74
2022/11/27 17:37:14;;;;;;;68.20;34.30;;;;;;;2.80;98.10;99662.08;214139;1310;23650;-75
2022/11/27 17:42:16;;;;;;;49.10;25.90;;;;;;;2.76;97.99;99657.67;213964;1310;22524;-74
2022/11/27 17:47:23;;;;;;;54.90;27.10;;;;;;;2.70;97.90;99653.04;214084;1310;24788;-74
2022/11/27 17:52:25;;;;;;;64.60;30.80;;;;;;;2.64;98.08;99656.09;214143;1310;22476;-76
2022/11/27 17:57:27;;;;;;;59.00;30.80;;;;;;;2.56;98.10;99662.61;214162;1295;22606;-74
2022/11/27 18:02:30;;;;;;;59.20;31.70;;;;;;;2.52;98.13;99661.30;214158;1310;24127;-74
2022/11/27 18:07:32;;;;;;;65.80;33.70;;;;;;;2.54;98.33;99660.86;214283;1309;22593;-75
2022/11/27 18:12:34;;;;;;;72.70;37.20;;;;;;;2.54;98.33;99661.02;214144;1309;24426;-75
2022/11/27 18:17:36;;;;;;;66.40;32.20;;;;;;;2.56;98.47;99657.33;214102;1309;25259;-76
2022/11/27 18:22:38;;;;;;;79.50;35.80;;;;;;;2.55;98.32;99660.83;214169;1310;26373;-74
2022/11/27 18:27:40;;;;;;;67.30;32.30;;;;;;;2.55;98.51;99646.67;214092;1310;25577;-76
2022/11/27 18:32:42;;;;;;;68.30;31.40;;;;;;;2.58;98.71;99639.36;214111;1310;22477;-75
2022/11/27 18:37:44;;;;;;;68.60;32.10;;;;;;;2.60;98.49;99635.02;214049;1310;22691;-75
2022/11/27 18:42:46;;;;;;;62.90;29.80;;;;;;;2.55;98.28;99620.33;214278;1302;22675;-76
2022/11/27 18:47:47;;;;;;;73.20;34.50;;;;;;;2.55;98.44;99616.50;214027;1310;22561;-75
2022/11/27 18:52:49;;;;;;;57.70;30.30;;;;;;;2.50;98.27;99617.04;214228;1309;25354;-75
2022/11/27 18:57:52;;;;;;;63.70;30.10;;;;;;;2.46;98.38;99598.98;214079;1309;25449;-76
2022/11/27 19:02:54;;;;;;;64.30;29.90;;;;;;;2.44;98.45;99588.31;213993;1310;24236;-75
2022/11/27 19:07:58;;;;;;;54.70;27.80;;;;;;;2.35;98.12;99588.45;214112;1310;22470;-75
2022/11/27 19:13:00;;;;;;;62.00;30.70;;;;;;;2.20;97.91;99596.84;214277;1310;25270;-75
2022/11/27 19:18:02;;;;;;;61.10;27.10;;;;;;;2.10;97.99;99581.91;214059;1310;24477;-76
2022/11/27 19:23:05;;;;;;;58.70;29.70;;;;;;;1.97;97.89;99579.66;214133;1310;24481;-74
2022/11/27 19:28:09;;;;;;;59.80;29.40;;;;;;;1.87;98.19;99581.95;214172;1310;23182;-75
2022/11/27 19:33:11;;;;;;;58.90;30.20;;;;;;;1.77;98.22;99576.63;214222;1310;22755;-74
2022/11/27 19:38:13;;;;;;;53.50;25.90;;;;;;;1.67;98.22;99576.11;214126;1309;22528;-75
2022/11/27 19:43:15;;;;;;;57.20;27.60;;;;;;;1.62;98.66;99568.65;213942;1307;22466;-74
2022/11/27 19:48:18;;;;;;;59.10;29.50;;;;;;;1.55;98.47;99565.75;214014;1310;25386;-76
2022/11/27 19:53:25;;;;;;;61.50;28.70;;;;;;;1.43;98.51;99567.47;214083;1309;23656;-74
2022/11/27 19:58:31;;;;;;;55.70;28.60;;;;;;;1.26;98.53;99563.83;214014;1310;22548;-76
2022/11/27 20:03:34;;;;;;;61.50;29.40;;;;;;;1.12;98.53;99566.34;214029;1310;25351;-75
2022/11/27 20:08:37;;;;;;;61.00;29.70;;;;;;;1.02;98.72;99569.94;213860;1310;25286;-75
2022/11/27 20:13:39;;;;;;;59.80;29.70;;;;;;;0.93;98.91;99569.55;214114;1310;22536;-75
2022/11/27 20:18:42;;;;;;;60.10;29.20;;;;;;;0.84;99.19;99573.09;213877;1310;25556;-75
2022/11/27 20:23:45;;;;;;;61.70;29.40;;;;;;;0.79;99.40;99569.85;213962;1310;22623;-76
2022/11/27 20:28:48;;;;;;;64.50;30.90;;;;;;;0.71;99.37;99560.86;214092;1310;22718;-74
2022/11/27 20:33:54;;;;;;;59.40;28.90;;;;;;;0.65;99.33;99561.14;214272;1308;22462;-75
2022/11/27 20:38:57;;;;;;;65.60;30.10;;;;;;;0.58;99.61;99554.60;214094;1309;22494;-75
2022/11/27 20:44:00;;;;;;;53.90;26.50;;;;;;;0.52;99.65;99548.08;214111;1310;22510;-75
2022/11/27 20:49:03;;;;;;;50.00;23.90;;;;;;;0.43;99.77;99553.04;214056;1310;22682;-76
2022/11/27 20:54:06;;;;;;;46.70;23.90;;;;;;;0.34;99.61;99553.23;214047;1310;22725;-75
2022/11/27 20:59:08;;;;;;;55.40;27.10;;;;;;;0.23;99.76;99544.41;214091;1309;26361;-73
2022/11/27 21:04:21;;;;;;;61.40;28.70;;;;;;;0.14;99.89;99548.58;214032;1310;22479;-75
2022/11/27 21:09:23;;;;;;;48.00;24.00;;;;;;;0.05;99.80;99545.41;214360;1310;24149;-75
2022/11/27 21:14:25;;;;;;;49.00;24.90;;;;;;;-0.05;99.82;99542.27;214069;1310;26351;-75
2022/11/27 21:19:27;;;;;;;50.60;25.80;;;;;;;-0.12;99.99;99534.48;214031;1310;25422;-75
2022/11/27 21:24:29;;;;;;;53.30;24.80;;;;;;;-0.16;100.00;99526.56;214098;1310;24310;-74
2022/11/27 21:29:31;;;;;;;50.20;22.80;;;;;;;-0.18;100.00;99517.98;214124;1310;22535;-75
2022/11/27 21:34:33;;;;;;;56.80;26.70;;;;;;;-0.22;100.00;99505.98;214351;1310;22537;-75
2022/11/27 21:39:36;;;;;;;61.20;28.00;;;;;;;-0.24;100.00;99496.30;214061;1310;22534;-74
2022/11/27 21:44:40;;;;;;;58.10;25.50;;;;;;;-0.29;100.00;99487.29;214225;1301;22502;-74
2022/11/27 21:49:43;;;;;;;57.60;27.30;;;;;;;-0.33;100.00;99478.33;214138;1304;22619;-75
2022/11/27 21:54:46;;;;;;;58.20;26.80;;;;;;;-0.39;100.00;99467.70;213852;1310;22492;-74
2022/11/27 21:59:49;;;;;;;62.20;29.70;;;;;;;-0.44;100.00;99455.66;214019;1310;23918;-74
2022/11/27 22:04:51;;;;;;;58.80;28.00;;;;;;;-0.45;100.00;99451.60;214007;1310;24059;-74
2022/11/27 22:09:56;;;;;;;57.80;26.70;;;;;;;-0.46;100.00;99448.56;213993;1303;22544;-75
2022/11/27 22:15:04;;;;;;;51.20;25.00;;;;;;;-0.45;100.00;99443.75;214066;1298;22420;-77
2022/11/27 22:20:06;;;;;;;66.50;29.70;;;;;;;-0.45;100.00;99450.23;214093;1310;24339;-75
2022/11/27 22:25:08;;;;;;;67.30;32.90;;;;;;;-0.48;100.00;99447.92;214346;1310;25557;-75
2022/11/27 22:30:11;;;;;;;71.50;32.30;;;;;;;-0.49;100.00;99444.39;214322;1310;22537;-75
2022/11/27 22:35:13;;;;;;;71.70;34.30;;;;;;;-0.50;100.00;99439.73;214037;1310;22486;-74
2022/11/27 22:40:15;;;;;;;68.80;32.30;;;;;;;-0.55;100.00;99437.45;213672;1310;486357;-75
2022/11/27 22:45:17;;;;;;;61.50;28.90;;;;;;;-0.60;100.00;99440.52;214236;1308;22549;-75
2022/11/27 22:50:19;;;;;;;58.20;27.80;;;;;;;-0.63;100.00;99440.27;214005;1309;24095;-75
2022/11/27 22:55:21;;;;;;;62.00;30.60;;;;;;;-0.64;100.00;99441.10;214311;1309;25329;-74
2022/11/27 23:00:23;;;;;;;66.30;31.10;;;;;;;-0.66;100.00;99439.38;214292;1309;22528;-74
2022/11/27 23:05:25;;;;;;;68.90;31.70;;;;;;;-0.66;100.00;99439.37;214127;1310;22494;-74
2022/11/27 23:10:27;;;;;;;64.00;29.10;;;;;;;-0.67;100.00;99435.69;214044;1310;22491;-74
2022/11/27 23:15:29;;;;;;;66.80;29.40;;;;;;;-0.70;100.00;99441.86;214243;1310;25379;-75